createdAt,value
2023-05-01T00:01:32.098Z,2.75
2023-05-01T00:06:36.729Z,3.25
2023-05-01T00:11:39.565Z,2.85
2023-05-01T00:16:43.222Z,2.92
2023-05-01T00:21:48.653Z,2.85
2023-05-01T00:26:51.625Z,3.75
2023-05-01T00:31:55.781Z,3.08
2023-05-01T00:37:00.155Z,2.70
2023-05-01T00:42:04.075Z,3.33
2023-05-01T00:47:06.965Z,3.10
2023-05-01T00:52:11.234Z,3.30
2023-05-01T00:57:13.943Z,3.40
2023-05-01T01:02:16.514Z,3.22
2023-05-01T01:07:24.424Z,3.38
2023-05-01T01:12:29.151Z,2.90
2023-05-01T01:17:33.275Z,3.45
2023-05-01T01:27:58.235Z,3.28
2023-05-01T01:33:19.045Z,3.83
2023-05-01T01:38:24.499Z,3.63
2023-05-01T01:43:27.820Z,3.30
2023-05-01T01:48:32.738Z,3.37
2023-05-01T01:53:38.627Z,3.40
2023-05-01T01:58:41.864Z,4.03
2023-05-01T02:03:45.744Z,3.57
2023-05-01T02:13:53.307Z,2.92
2023-05-01T02:18:56.759Z,3.80
2023-05-01T02:24:01.429Z,2.65
2023-05-01T02:29:07.495Z,3.58
2023-05-01T02:34:10.083Z,3.83
2023-05-01T02:39:12.734Z,3.60
2023-05-01T02:44:16.910Z,3.67
2023-05-01T02:54:22.455Z,3.92
2023-05-01T02:59:26.310Z,3.90
2023-05-01T03:04:28.907Z,3.42
2023-05-01T03:09:31.543Z,4.30
2023-05-01T03:14:35.453Z,5.07
2023-05-01T03:19:38.076Z,4.45
2023-05-01T03:24:40.513Z,4.72
2023-05-01T03:29:44.297Z,3.88
2023-05-01T03:34:46.829Z,4.30
2023-05-01T03:39:49.409Z,3.70
2023-05-01T03:44:53.608Z,4.60
2023-05-01T03:54:59.039Z,4.90
2023-05-01T04:00:03.386Z,4.00
2023-05-01T04:05:06.560Z,4.32
2023-05-01T04:10:09.822Z,5.00
2023-05-01T04:15:15.541Z,5.13
2023-05-01T04:20:19.516Z,5.40
2023-05-01T04:25:22.156Z,4.82
2023-05-01T04:30:26.547Z,4.50
2023-05-01T04:35:29.008Z,4.30
2023-05-01T04:40:31.456Z,4.13
2023-05-01T04:45:35.468Z,4.38
2023-05-01T04:50:38.022Z,4.18
2023-05-01T04:55:40.516Z,4.30
2023-05-01T05:00:44.318Z,4.43
2023-05-01T05:05:46.898Z,3.92
2023-05-01T05:10:49.665Z,4.65
2023-05-01T05:15:53.638Z,3.97
2023-05-01T05:20:56.189Z,4.28
2023-05-01T05:26:00.173Z,3.85
2023-05-01T05:31:04.042Z,4.40
2023-05-01T05:36:06.705Z,4.45
2023-05-01T05:41:09.582Z,3.05
2023-05-01T05:46:13.781Z,4.30
2023-05-01T05:51:16.270Z,4.28
2023-05-01T05:56:24.379Z,4.80
2023-05-01T06:01:28.350Z,3.65
2023-05-01T06:11:34.020Z,4.45
2023-05-01T06:16:38.329Z,4.25
2023-05-01T06:21:41.187Z,4.30
2023-05-01T06:26:43.699Z,4.45
2023-05-01T06:31:47.596Z,4.60
2023-05-01T06:41:52.544Z,4.03
2023-05-01T06:46:58.722Z,4.20
2023-05-01T06:52:01.777Z,4.15
2023-05-01T06:57:05.629Z,3.47
2023-05-01T07:02:10.620Z,4.22
2023-05-01T07:30:24.424Z,1.85
2023-05-01T07:35:34.670Z,2.95
2023-05-01T07:40:43.289Z,4.00
2023-05-01T07:45:59.758Z,3.92
2023-05-01T07:51:04.241Z,2.58
2023-05-01T07:56:09.253Z,3.90
2023-05-01T08:01:23.326Z,4.10
2023-05-01T08:06:44.374Z,3.93
2023-05-01T08:11:50.670Z,4.00
2023-05-01T08:17:03.607Z,4.20
2023-05-01T08:22:09.032Z,4.18
2023-05-01T08:27:21.157Z,4.47
2023-05-01T08:32:43.689Z,4.05
2023-05-01T08:42:55.498Z,3.25
2023-05-01T08:48:06.752Z,3.33
2023-05-01T08:53:17.666Z,4.30
2023-05-01T08:58:23.321Z,3.90
2023-05-01T09:03:40.822Z,3.88
2023-05-01T09:08:46.627Z,4.28
2023-05-01T09:13:57.756Z,4.72
2023-05-01T09:19:18.308Z,4.80
2023-05-01T09:24:32.812Z,4.50
2023-05-01T09:29:43.672Z,4.85
2023-05-01T09:35:13.530Z,5.15
2023-05-01T09:40:21.075Z,4.82
2023-05-01T09:45:33.875Z,4.85
2023-05-01T09:50:42.411Z,5.00
2023-05-01T09:56:03.858Z,5.53
2023-05-01T10:01:12.354Z,5.57
2023-05-01T10:06:43.638Z,3.63
2023-05-01T10:12:03.574Z,4.05
2023-05-01T10:17:33.985Z,4.50
2023-05-01T10:22:45.464Z,5.43
2023-05-01T10:28:15.662Z,5.95
2023-05-01T10:33:25.105Z,5.07
2023-05-01T10:38:36.355Z,6.28
2023-05-01T10:43:59.002Z,6.47
2023-05-01T10:49:09.385Z,6.00
2023-05-01T10:54:30.050Z,6.25
2023-05-01T10:59:48.674Z,6.57
2023-05-01T11:04:59.702Z,6.65
2023-05-01T11:10:27.417Z,6.57
2023-05-01T11:15:35.559Z,6.75
2023-05-01T11:21:09.805Z,7.50
2023-05-01T11:26:16.307Z,7.05
2023-05-01T11:31:20.806Z,7.55
2023-05-01T11:36:29.070Z,7.35
2023-05-01T11:41:49.846Z,6.75
2023-05-01T11:47:01.585Z,7.88
2023-05-01T11:52:04.796Z,7.85
2023-05-01T11:57:26.741Z,8.05
2023-05-01T12:02:40.294Z,8.10
2023-05-01T12:07:43.698Z,7.75
2023-05-01T12:12:52.516Z,7.82
2023-05-01T12:18:00.720Z,7.57
2023-05-01T12:23:07.043Z,7.60
2023-05-01T12:28:23.668Z,7.22
2023-05-01T12:33:32.692Z,7.97
2023-05-01T12:38:39.559Z,7.32
2023-05-01T12:43:51.493Z,7.22
2023-05-01T12:49:04.216Z,6.80
2023-05-01T12:54:13.987Z,7.45
2023-05-01T12:59:27.132Z,6.82
2023-05-01T13:04:36.221Z,6.57
2023-05-01T13:10:02.134Z,7.18
2023-05-01T13:15:21.963Z,6.50
2023-05-01T13:20:33.610Z,6.00
2023-05-01T13:25:37.129Z,6.38
2023-05-01T13:30:42.666Z,6.60
2023-05-01T13:35:51.464Z,6.85
2023-05-01T13:41:00.224Z,6.38
2023-05-01T13:46:03.939Z,6.28
2023-05-01T13:56:24.241Z,7.03
2023-05-01T14:01:40.508Z,7.20
2023-05-01T14:06:46.559Z,6.95
2023-05-01T14:11:55.451Z,7.00
2023-05-01T14:17:05.899Z,6.85
2023-05-01T14:22:09.244Z,7.40
2023-05-01T14:32:20.903Z,5.55
2023-05-01T14:37:26.633Z,5.90
2023-05-01T14:42:29.563Z,6.00
2023-05-01T14:47:46.727Z,6.32
2023-05-01T14:52:57.292Z,5.95
2023-05-01T14:58:08.012Z,5.85
2023-05-01T15:03:24.983Z,6.63
2023-05-01T15:08:30.715Z,5.78
2023-05-01T15:13:44.566Z,3.58
2023-05-01T15:23:59.353Z,5.15
2023-05-01T15:29:07.374Z,5.60
2023-05-01T15:34:12.212Z,5.03
2023-05-01T15:39:25.665Z,4.57
2023-05-01T15:44:32.123Z,4.07
2023-05-01T15:49:36.054Z,5.32
2023-05-01T15:54:48.206Z,4.40
2023-05-01T15:59:57.510Z,5.00
2023-05-01T16:05:10.813Z,5.95
2023-05-01T16:10:18.164Z,4.95
2023-05-01T16:15:23.791Z,3.85
2023-05-01T16:20:30.402Z,4.25
2023-05-01T16:25:47.032Z,6.72
2023-05-01T16:30:53.704Z,4.53
2023-05-01T16:36:33.221Z,2.90
2023-05-01T16:41:58.232Z,5.55
2023-05-01T16:47:09.073Z,4.93
2023-05-01T16:52:24.704Z,6.65
2023-05-01T16:57:44.590Z,6.47
2023-05-01T17:03:04.543Z,3.30
2023-05-01T17:08:10.665Z,5.88
2023-05-01T17:13:18.277Z,2.63
2023-05-01T17:18:26.577Z,5.95
2023-05-01T17:23:36.055Z,6.13
2023-05-01T17:28:48.564Z,4.55
2023-05-01T17:34:11.515Z,9.60
2023-05-01T17:39:18.140Z,6.90
2023-05-01T17:44:28.164Z,4.45
2023-05-01T17:49:43.983Z,5.10
2023-05-01T17:54:51.056Z,5.78
2023-05-01T18:00:02.160Z,7.20
2023-05-01T18:05:14.850Z,4.53
2023-05-01T18:10:22.209Z,3.67
2023-05-01T18:15:35.090Z,4.43
2023-05-01T18:20:43.841Z,2.47
2023-05-01T18:25:50.898Z,6.30
2023-05-01T18:30:56.650Z,1.80
2023-05-01T18:36:03.383Z,5.10
2023-05-01T18:41:20.476Z,2.00
2023-05-01T18:46:37.598Z,4.90
2023-05-01T18:51:45.561Z,2.75
2023-05-01T18:57:00.601Z,4.05
2023-05-01T19:02:15.551Z,4.55
2023-05-01T19:07:23.057Z,1.73
2023-05-01T19:12:27.710Z,3.03
2023-05-01T19:17:31.685Z,3.20
2023-05-01T19:27:47.763Z,3.22
2023-05-01T19:32:54.200Z,1.73
2023-05-01T19:38:01.990Z,3.13
2023-05-01T19:43:10.170Z,2.88
2023-05-01T19:48:21.257Z,2.30
2023-05-01T19:53:29.090Z,2.92
2023-05-01T19:58:34.171Z,1.90
2023-05-01T20:03:46.595Z,1.35
2023-05-01T20:08:54.096Z,2.92
2023-05-01T20:13:59.982Z,1.48
2023-05-01T20:19:06.013Z,2.10
2023-05-01T20:24:11.135Z,2.90
2023-05-01T20:29:24.804Z,2.47
2023-05-01T20:34:29.506Z,1.52
2023-05-01T20:39:33.231Z,2.67
2023-05-01T20:44:42.738Z,2.08
2023-05-01T20:49:46.385Z,2.70
2023-05-01T21:00:12.088Z,2.17
2023-05-01T21:05:19.714Z,1.80
2023-05-01T21:10:25.971Z,1.40
2023-05-01T21:15:32.929Z,2.33
2023-05-01T21:20:37.672Z,0.95
2023-05-01T21:25:44.150Z,1.80
2023-05-01T21:30:55.622Z,1.60
2023-05-01T21:36:01.038Z,0.90
2023-05-01T21:41:05.296Z,0.77
2023-05-01T21:46:20.368Z,1.40
2023-05-01T21:51:28.398Z,1.95
2023-05-01T21:56:34.603Z,1.58
2023-05-01T22:01:51.842Z,1.52
2023-05-01T22:06:56.825Z,1.52
2023-05-01T22:12:02.294Z,2.20
2023-05-01T22:17:14.732Z,2.42
2023-05-01T22:22:19.896Z,2.20
2023-05-01T22:27:24.728Z,1.02
2023-05-01T22:32:32.288Z,2.20
2023-05-01T22:37:36.674Z,1.90
2023-05-01T22:42:45.730Z,2.58
2023-05-01T22:48:00.351Z,0.93
2023-05-01T22:53:08.181Z,2.10
2023-05-01T22:58:11.859Z,1.33
2023-05-01T23:03:16.687Z,1.88
2023-05-01T23:08:25.012Z,2.10
2023-05-01T23:13:35.219Z,0.88
2023-05-01T23:18:56.493Z,2.05
2023-05-01T23:24:07.356Z,2.40
2023-05-01T23:29:11.481Z,1.50
2023-05-01T23:34:20.426Z,0.82
2023-05-01T23:39:29.492Z,2.13
2023-05-01T23:44:37.392Z,2.50
2023-05-01T23:49:44.159Z,2.30
2023-05-01T23:54:55.479Z,1.45
